sensor_id;sensor_type;location;lat;lon;timestamp;temperature;humidity
3980;DHT22;2004;52.452;13.120;2023-07-13T00:06:41;18.20;92.90
3980;DHT22;2004;52.452;13.120;2023-07-13T00:14:35;18.10;93.10
3980;DHT22;2004;52.452;13.120;2023-07-13T00:22:25;18.10;93.80
3980;DHT22;2004;52.452;13.120;2023-07-13T00:30:16;18.00;93.70
3980;DHT22;2004;52.452;13.120;2023-07-13T00:38:07;17.90;94.40
3980;DHT22;2004;52.452;13.120;2023-07-13T00:46:14;17.80;94.50
3980;DHT22;2004;52.452;13.120;2023-07-13T00:54:08;17.70;95.00
3980;DHT22;2004;52.452;13.120;2023-07-13T01:01:59;17.60;96.10
3980;DHT22;2004;52.452;13.120;2023-07-13T01:09:51;17.50;97.00
3980;DHT22;2004;52.452;13.120;2023-07-13T01:17:41;17.40;98.20
3980;DHT22;2004;52.452;13.120;2023-07-13T01:25:36;17.40;99.90
3980;DHT22;2004;52.452;13.120;2023-07-13T01:33:27;17.30;99.90
3980;DHT22;2004;52.452;13.120;2023-07-13T01:41:18;17.30;99.90
3980;DHT22;2004;52.452;13.120;2023-07-13T01:49:08;17.20;99.90
3980;DHT22;2004;52.452;13.120;2023-07-13T01:56:59;17.10;99.90
3980;DHT22;2004;52.452;13.120;2023-07-13T02:04:49;17.10;99.90
3980;DHT22;2004;52.452;13.120;2023-07-13T02:12:41;16.90;99.90
3980;DHT22;2004;52.452;13.120;2023-07-13T02:20:32;16.80;99.90
3980;DHT22;2004;52.452;13.120;2023-07-13T02:28:23;16.80;99.90
3980;DHT22;2004;52.452;13.120;2023-07-13T02:36:14;16.70;99.90
3980;DHT22;2004;52.452;13.120;2023-07-13T02:44:06;16.60;99.90
3980;DHT22;2004;52.452;13.120;2023-07-13T02:51:58;16.50;99.90
3980;DHT22;2004;52.452;13.120;2023-07-13T02:59:49;16.40;99.90
3980;DHT22;2004;52.452;13.120;2023-07-13T03:07:40;16.30;99.90
3980;DHT22;2004;52.452;13.120;2023-07-13T03:15:30;16.30;99.90
3980;DHT22;2004;52.452;13.120;2023-07-13T03:23:25;16.30;99.90
3980;DHT22;2004;52.452;13.120;2023-07-13T03:31:25;16.30;99.90
3980;DHT22;2004;52.452;13.120;2023-07-13T03:39:16;16.30;99.90
3980;DHT22;2004;52.452;13.120;2023-07-13T03:47:06;16.40;99.90
3980;DHT22;2004;52.452;13.120;2023-07-13T03:55:00;16.40;99.90
3980;DHT22;2004;52.452;13.120;2023-07-13T04:02:51;16.50;99.90
3980;DHT22;2004;52.452;13.120;2023-07-13T04:10:42;16.60;99.90
3980;DHT22;2004;52.452;13.120;2023-07-13T04:18:34;16.80;99.90
3980;DHT22;2004;52.452;13.120;2023-07-13T04:26:26;17.00;99.90
3980;DHT22;2004;52.452;13.120;2023-07-13T04:34:16;17.30;99.90
3980;DHT22;2004;52.452;13.120;2023-07-13T04:42:07;17.60;99.90
3980;DHT22;2004;52.452;13.120;2023-07-13T04:49:58;17.60;99.90
3980;DHT22;2004;52.452;13.120;2023-07-13T04:57:48;17.60;99.90
3980;DHT22;2004;52.452;13.120;2023-07-13T05:05:40;17.70;99.90
3980;DHT22;2004;52.452;13.120;2023-07-13T05:13:31;17.80;99.90
3980;DHT22;2004;52.452;13.120;2023-07-13T05:21:21;17.90;99.90
3980;DHT22;2004;52.452;13.120;2023-07-13T05:29:12;18.10;99.90
3980;DHT22;2004;52.452;13.120;2023-07-13T05:37:02;18.20;99.90
3980;DHT22;2004;52.452;13.120;2023-07-13T05:44:53;18.60;99.90
3980;DHT22;2004;52.452;13.120;2023-07-13T05:52:43;18.90;99.90
3980;DHT22;2004;52.452;13.120;2023-07-13T06:00:34;19.10;99.90
3980;DHT22;2004;52.452;13.120;2023-07-13T06:08:24;19.10;99.90
3980;DHT22;2004;52.452;13.120;2023-07-13T06:16:15;19.30;99.90
3980;DHT22;2004;52.452;13.120;2023-07-13T06:24:07;19.70;99.90
3980;DHT22;2004;52.452;13.120;2023-07-13T06:31:57;19.90;99.90
3980;DHT22;2004;52.452;13.120;2023-07-13T06:39:48;20.10;99.90
3980;DHT22;2004;52.452;13.120;2023-07-13T06:47:38;20.10;99.90
3980;DHT22;2004;52.452;13.120;2023-07-13T06:55:29;20.10;99.90
3980;DHT22;2004;52.452;13.120;2023-07-13T07:03:20;20.20;99.90
3980;DHT22;2004;52.452;13.120;2023-07-13T07:11:13;20.20;99.90
3980;DHT22;2004;52.452;13.120;2023-07-13T07:19:04;20.40;99.90
3980;DHT22;2004;52.452;13.120;2023-07-13T07:26:55;20.50;99.90
3980;DHT22;2004;52.452;13.120;2023-07-13T07:34:45;20.70;99.90
3980;DHT22;2004;52.452;13.120;2023-07-13T07:42:36;20.80;99.90
3980;DHT22;2004;52.452;13.120;2023-07-13T07:50:28;20.90;99.90
3980;DHT22;2004;52.452;13.120;2023-07-13T07:58:19;21.00;99.90
3980;DHT22;2004;52.452;13.120;2023-07-13T08:06:09;21.10;99.90
3980;DHT22;2004;52.452;13.120;2023-07-13T08:14:01;21.30;99.90
3980;DHT22;2004;52.452;13.120;2023-07-13T08:21:51;21.40;98.80
3980;DHT22;2004;52.452;13.120;2023-07-13T08:29:42;21.30;97.70
3980;DHT22;2004;52.452;13.120;2023-07-13T08:37:32;21.40;98.40
3980;DHT22;2004;52.452;13.120;2023-07-13T08:45:30;21.50;99.10
3980;DHT22;2004;52.452;13.120;2023-07-13T08:53:28;21.60;97.90
3980;DHT22;2004;52.452;13.120;2023-07-13T09:10:00;21.90;96.50
3980;DHT22;2004;52.452;13.120;2023-07-13T09:17:55;22.00;95.60
3980;DHT22;2004;52.452;13.120;2023-07-13T09:25:49;22.20;92.20
3980;DHT22;2004;52.452;13.120;2023-07-13T09:33:45;22.40;90.20
3980;DHT22;2004;52.452;13.120;2023-07-13T09:41:53;22.40;88.00
3980;DHT22;2004;52.452;13.120;2023-07-13T09:49:47;22.50;86.50
3980;DHT22;2004;52.452;13.120;2023-07-13T09:57:46;22.70;83.20
3980;DHT22;2004;52.452;13.120;2023-07-13T10:05:40;22.90;82.50
3980;DHT22;2004;52.452;13.120;2023-07-13T10:13:34;23.00;80.80
3980;DHT22;2004;52.452;13.120;2023-07-13T10:21:34;23.00;81.10
3980;DHT22;2004;52.452;13.120;2023-07-13T10:29:27;23.10;75.80
3980;DHT22;2004;52.452;13.120;2023-07-13T10:37:27;23.10;76.20
3980;DHT22;2004;52.452;13.120;2023-07-13T10:45:21;23.20;78.40
3980;DHT22;2004;52.452;13.120;2023-07-13T10:53:22;23.30;77.80
3980;DHT22;2004;52.452;13.120;2023-07-13T11:01:18;23.60;70.90
3980;DHT22;2004;52.452;13.120;2023-07-13T11:25:25;24.10;70.30
3980;DHT22;2004;52.452;13.120;2023-07-13T11:41:58;24.80;63.30
3980;DHT22;2004;52.452;13.120;2023-07-13T11:49:55;25.30;66.50
3980;DHT22;2004;52.452;13.120;2023-07-13T11:57:53;25.30;63.30
3980;DHT22;2004;52.452;13.120;2023-07-13T12:06:03;25.20;64.20
3980;DHT22;2004;52.452;13.120;2023-07-13T12:13:56;25.40;63.70
3980;DHT22;2004;52.452;13.120;2023-07-13T12:21:47;25.60;62.10
3980;DHT22;2004;52.452;13.120;2023-07-13T12:29:37;25.60;60.00
3980;DHT22;2004;52.452;13.120;2023-07-13T12:37:28;25.60;58.50
3980;DHT22;2004;52.452;13.120;2023-07-13T12:45:22;25.50;60.20
3980;DHT22;2004;52.452;13.120;2023-07-13T12:53:15;24.90;60.50
3980;DHT22;2004;52.452;13.120;2023-07-13T13:01:10;25.10;61.30
3980;DHT22;2004;52.452;13.120;2023-07-13T13:09:03;25.20;59.10
3980;DHT22;2004;52.452;13.120;2023-07-13T13:16:54;25.40;59.00
3980;DHT22;2004;52.452;13.120;2023-07-13T13:24:44;25.60;59.00
3980;DHT22;2004;52.452;13.120;2023-07-13T13:32:35;25.60;58.90
3980;DHT22;2004;52.452;13.120;2023-07-13T13:40:26;25.60;60.00
3980;DHT22;2004;52.452;13.120;2023-07-13T13:48:19;25.70;58.40
3980;DHT22;2004;52.452;13.120;2023-07-13T13:56:13;25.70;59.60
3980;DHT22;2004;52.452;13.120;2023-07-13T14:04:04;25.70;56.30
3980;DHT22;2004;52.452;13.120;2023-07-13T14:11:56;25.50;57.90
3980;DHT22;2004;52.452;13.120;2023-07-13T14:19:51;25.40;57.80
3980;DHT22;2004;52.452;13.120;2023-07-13T14:27:49;25.50;58.90
3980;DHT22;2004;52.452;13.120;2023-07-13T14:35:42;25.50;57.60
3980;DHT22;2004;52.452;13.120;2023-07-13T14:43:33;25.40;56.60
3980;DHT22;2004;52.452;13.120;2023-07-13T14:51:24;25.50;56.10
3980;DHT22;2004;52.452;13.120;2023-07-13T14:59:14;25.40;55.90
3980;DHT22;2004;52.452;13.120;2023-07-13T15:07:05;25.60;57.70
3980;DHT22;2004;52.452;13.120;2023-07-13T15:14:55;25.60;56.10
3980;DHT22;2004;52.452;13.120;2023-07-13T15:22:48;25.50;55.10
3980;DHT22;2004;52.452;13.120;2023-07-13T15:30:44;25.40;56.40
3980;DHT22;2004;52.452;13.120;2023-07-13T15:38:36;25.20;55.10
3980;DHT22;2004;52.452;13.120;2023-07-13T15:46:30;25.20;56.80
3980;DHT22;2004;52.452;13.120;2023-07-13T15:54:22;25.10;56.10
3980;DHT22;2004;52.452;13.120;2023-07-13T16:02:20;25.10;55.50
3980;DHT22;2004;52.452;13.120;2023-07-13T16:10:21;25.10;55.30
3980;DHT22;2004;52.452;13.120;2023-07-13T16:18:12;25.10;56.40
3980;DHT22;2004;52.452;13.120;2023-07-13T16:26:02;25.00;56.70
3980;DHT22;2004;52.452;13.120;2023-07-13T16:33:53;24.80;56.10
3980;DHT22;2004;52.452;13.120;2023-07-13T16:41:44;24.50;57.70
3980;DHT22;2004;52.452;13.120;2023-07-13T16:49:37;24.30;56.00
3980;DHT22;2004;52.452;13.120;2023-07-13T16:57:31;24.10;55.70
3980;DHT22;2004;52.452;13.120;2023-07-13T17:05:23;23.70;61.50
3980;DHT22;2004;52.452;13.120;2023-07-13T17:13:17;22.80;68.10
3980;DHT22;2004;52.452;13.120;2023-07-13T17:21:14;22.00;71.70
3980;DHT22;2004;52.452;13.120;2023-07-13T17:29:05;21.30;74.50
3980;DHT22;2004;52.452;13.120;2023-07-13T17:37:01;21.00;77.00
3980;DHT22;2004;52.452;13.120;2023-07-13T17:44:51;20.70;78.50
3980;DHT22;2004;52.452;13.120;2023-07-13T17:52:42;20.50;78.70
3980;DHT22;2004;52.452;13.120;2023-07-13T18:00:40;20.30;78.90
3980;DHT22;2004;52.452;13.120;2023-07-13T18:08:32;20.20;79.70
3980;DHT22;2004;52.452;13.120;2023-07-13T18:16:26;20.10;80.90
3980;DHT22;2004;52.452;13.120;2023-07-13T18:24:17;20.10;82.10
3980;DHT22;2004;52.452;13.120;2023-07-13T18:32:15;20.00;81.50
3980;DHT22;2004;52.452;13.120;2023-07-13T18:40:16;20.00;82.00
3980;DHT22;2004;52.452;13.120;2023-07-13T18:48:12;19.90;82.40
3980;DHT22;2004;52.452;13.120;2023-07-13T18:56:05;19.90;83.60
3980;DHT22;2004;52.452;13.120;2023-07-13T19:03:56;19.80;83.90
3980;DHT22;2004;52.452;13.120;2023-07-13T19:11:46;19.80;84.90
3980;DHT22;2004;52.452;13.120;2023-07-13T19:19:37;19.70;84.70
3980;DHT22;2004;52.452;13.120;2023-07-13T19:27:28;19.60;85.30
3980;DHT22;2004;52.452;13.120;2023-07-13T19:35:22;19.50;86.50
3980;DHT22;2004;52.452;13.120;2023-07-13T19:43:16;19.40;86.30
3980;DHT22;2004;52.452;13.120;2023-07-13T19:51:12;19.30;87.10
3980;DHT22;2004;52.452;13.120;2023-07-13T20:07:18;19.20;88.90
3980;DHT22;2004;52.452;13.120;2023-07-13T20:15:15;19.10;90.00
3980;DHT22;2004;52.452;13.120;2023-07-13T20:23:18;19.10;90.60
3980;DHT22;2004;52.452;13.120;2023-07-13T20:31:13;18.90;91.10
3980;DHT22;2004;52.452;13.120;2023-07-13T20:39:04;18.80;91.70
3980;DHT22;2004;52.452;13.120;2023-07-13T20:46:55;18.70;92.30
3980;DHT22;2004;52.452;13.120;2023-07-13T20:54:46;18.70;93.30
3980;DHT22;2004;52.452;13.120;2023-07-13T21:02:38;18.60;94.00
3980;DHT22;2004;52.452;13.120;2023-07-13T21:10:30;18.50;94.90
3980;DHT22;2004;52.452;13.120;2023-07-13T21:18:23;18.40;95.70
3980;DHT22;2004;52.452;13.120;2023-07-13T21:26:15;18.40;96.30
3980;DHT22;2004;52.452;13.120;2023-07-13T21:34:13;18.30;97.70
3980;DHT22;2004;52.452;13.120;2023-07-13T21:42:05;18.30;98.70
3980;DHT22;2004;52.452;13.120;2023-07-13T21:49:56;18.20;99.80
3980;DHT22;2004;52.452;13.120;2023-07-13T21:57:53;18.10;99.90
3980;DHT22;2004;52.452;13.120;2023-07-13T22:05:46;18.00;99.90
3980;DHT22;2004;52.452;13.120;2023-07-13T22:13:38;18.00;99.90
3980;DHT22;2004;52.452;13.120;2023-07-13T22:21:29;17.90;99.90
3980;DHT22;2004;52.452;13.120;2023-07-13T22:29:27;17.90;99.90
3980;DHT22;2004;52.452;13.120;2023-07-13T22:37:19;17.90;99.90
3980;DHT22;2004;52.452;13.120;2023-07-13T22:45:10;17.90;99.90
3980;DHT22;2004;52.452;13.120;2023-07-13T22:53:02;17.90;99.90
3980;DHT22;2004;52.452;13.120;2023-07-13T23:00:54;17.80;99.90
3980;DHT22;2004;52.452;13.120;2023-07-13T23:08:48;17.80;99.90
3980;DHT22;2004;52.452;13.120;2023-07-13T23:16:40;17.70;99.90
3980;DHT22;2004;52.452;13.120;2023-07-13T23:24:32;17.60;99.90
3980;DHT22;2004;52.452;13.120;2023-07-13T23:32:27;17.50;99.90
3980;DHT22;2004;52.452;13.120;2023-07-13T23:40:21;17.40;99.90
3980;DHT22;2004;52.452;13.120;2023-07-13T23:48:13;17.40;99.90
3980;DHT22;2004;52.452;13.120;2023-07-13T23:56:19;17.30;99.90
